Time;durP1;ratioP1;P1;durP2;ratioP2;P2;SDS_P1;SDS_P2;PMS_P1;PMS_P2;Temp;Humidity;BMP_temperature;BMP_pressure;BME280_temperature;BME280_humidity;BME280_pressure;Samples;Min_cycle;Max_cycle;Signal;HPM_P1;HPM_P2
2020/12/31 00:01:36;;;;;;;;;;;6.30;89.80;;;;;;5090302;28;19928;-70
2020/12/31 00:04:02;;;;;;;;;;;6.30;89.00;;;;;;5090775;28;19924;-70
2020/12/31 00:06:28;;;;;;;;;;;6.20;89.50;;;;;;5090077;28;19924;-70
2020/12/31 00:08:55;;;;;;;;;;;6.40;90.00;;;;;;5090213;28;19993;-68
2020/12/31 00:11:21;;;;;;;;;;;6.30;89.80;;;;;;5090069;28;20167;-68
2020/12/31 00:13:49;;;;;;;;;;;6.40;89.70;;;;;;5090184;28;19967;-70
2020/12/31 00:16:16;;;;;;;;;;;6.60;88.40;;;;;;5090043;28;19928;-70
2020/12/31 00:18:42;;;;;;;;;;;6.60;88.70;;;;;;5090356;28;19951;-70
2020/12/31 00:21:09;;;;;;;;;;;6.40;89.40;;;;;;5090199;28;20430;-71
2020/12/31 00:23:35;;;;;;;;;;;6.50;89.40;;;;;;5072230;28;20316;-70
2020/12/31 00:26:02;;;;;;;;;;;6.60;88.90;;;;;;5092539;28;19932;-70
2020/12/31 00:28:28;;;;;;;;;;;6.70;88.50;;;;;;5110845;28;20186;-70
2020/12/31 00:30:54;;;;;;;;;;;6.80;88.90;;;;;;5111372;28;19923;-69
2020/12/31 00:33:21;;;;;;;;;;;6.70;89.20;;;;;;5100486;28;19931;-70
2020/12/31 00:35:49;;;;;;;;;;;6.80;89.60;;;;;;5095050;28;19955;-70
2020/12/31 00:38:16;;;;;;;;;;;6.70;89.60;;;;;;5108045;28;19931;-70
2020/12/31 00:40:43;;;;;;;;;;;6.70;89.60;;;;;;5110190;28;20341;-69
2020/12/31 00:43:09;;;;;;;;;;;6.60;90.30;;;;;;5089613;28;19924;-71
2020/12/31 00:45:35;;;;;;;;;;;6.50;90.70;;;;;;5089674;28;19924;-70
2020/12/31 00:48:02;;;;;;;;;;;6.70;90.70;;;;;;5089553;28;19924;-70
2020/12/31 00:50:28;;;;;;;;;;;6.60;90.50;;;;;;5089404;28;19931;-70
2020/12/31 00:52:54;;;;;;;;;;;6.80;90.20;;;;;;5089966;28;19924;-70
2020/12/31 00:55:21;;;;;;;;;;;6.80;90.50;;;;;;5089211;28;20392;-69
2020/12/31 00:57:47;;;;;;;;;;;6.90;90.10;;;;;;5089302;28;19928;-70
2020/12/31 01:00:13;;;;;;;;;;;6.80;90.20;;;;;;5091101;28;19928;-70
2020/12/31 01:02:40;;;;;;;;;;;6.90;90.00;;;;;;5093147;28;19989;-65
2020/12/31 01:05:09;;;;;;;;;;;7.10;89.20;;;;;;5093621;28;19994;-70
2020/12/31 01:07:36;;;;;;;;;;;6.90;89.60;;;;;;5093484;28;19924;-68
2020/12/31 01:10:05;;;;;;;;;;;6.80;90.40;;;;;;5093785;28;19924;-70
2020/12/31 01:12:31;;;;;;;;;;;7.00;90.20;;;;;;5093563;28;19932;-70
2020/12/31 01:14:57;;;;;;;;;;;7.00;90.20;;;;;;5093129;28;19978;-70
2020/12/31 01:17:24;;;;;;;;;;;7.10;90.00;;;;;;5093406;28;19958;-70
2020/12/31 01:19:50;;;;;;;;;;;7.10;89.70;;;;;;5093205;28;19924;-66
2020/12/31 01:22:16;;;;;;;;;;;7.40;88.80;;;;;;5092911;28;19924;-70
2020/12/31 01:24:44;;;;;;;;;;;7.40;87.90;;;;;;5092822;28;20030;-69
2020/12/31 01:27:10;;;;;;;;;;;7.40;88.30;;;;;;5105175;28;20326;-71
2020/12/31 01:29:36;;;;;;;;;;;7.40;88.20;;;;;;5113001;28;19971;-68
2020/12/31 01:32:03;;;;;;;;;;;7.50;88.30;;;;;;5110109;28;19928;-70
2020/12/31 01:34:29;;;;;;;;;;;7.20;90.00;;;;;;5092499;28;19977;-70
2020/12/31 01:36:56;;;;;;;;;;;7.40;89.00;;;;;;5094719;28;20307;-68
2020/12/31 01:39:22;;;;;;;;;;;7.50;88.10;;;;;;5113231;28;19928;-69
2020/12/31 01:41:49;;;;;;;;;;;7.60;88.40;;;;;;5103057;28;19932;-69
2020/12/31 01:44:15;;;;;;;;;;;7.50;88.80;;;;;;5074623;28;19924;-71
2020/12/31 01:46:43;;;;;;;;;;;7.40;89.60;;;;;;5092211;28;19927;-69
2020/12/31 01:49:11;;;;;;;;;;;7.50;89.00;;;;;;5092132;28;20449;-69
2020/12/31 01:51:39;;;;;;;;;;;7.70;88.50;;;;;;5091702;28;19931;-71
2020/12/31 01:54:05;;;;;;;;;;;7.40;89.70;;;;;;5092747;28;20198;-71
2020/12/31 01:56:32;;;;;;;;;;;7.20;90.20;;;;;;5092144;28;19924;-69
2020/12/31 01:58:59;;;;;;;;;;;7.30;90.10;;;;;;5074128;28;19928;-70
2020/12/31 02:01:26;;;;;;;;;;;7.40;90.10;;;;;;5092436;28;19924;-71
2020/12/31 02:03:53;;;;;;;;;;;7.60;89.30;;;;;;5092100;28;19977;-70
2020/12/31 02:06:22;;;;;;;;;;;7.60;89.40;;;;;;5091657;28;19924;-70
2020/12/31 02:08:49;;;;;;;;;;;7.60;89.60;;;;;;5092169;28;19928;-71
2020/12/31 02:11:16;;;;;;;;;;;7.60;89.30;;;;;;5091474;28;20326;-70
2020/12/31 02:13:42;;;;;;;;;;;7.70;88.90;;;;;;5092100;28;19928;-69
2020/12/31 02:16:10;;;;;;;;;;;7.80;88.70;;;;;;5091630;28;19925;-71
2020/12/31 02:18:36;;;;;;;;;;;7.80;88.80;;;;;;5091552;28;20395;-70
2020/12/31 02:21:02;;;;;;;;;;;7.70;88.90;;;;;;5091433;28;19924;-70
2020/12/31 02:23:29;;;;;;;;;;;7.70;89.10;;;;;;5091707;28;19924;-69
2020/12/31 02:25:57;;;;;;;;;;;7.80;88.90;;;;;;5093299;28;19924;-69
2020/12/31 02:28:24;;;;;;;;;;;7.90;88.50;;;;;;5111576;28;20338;-70
2020/12/31 02:30:50;;;;;;;;;;;7.70;89.50;;;;;;5111667;28;19935;-70
2020/12/31 02:33:16;;;;;;;;;;;7.70;89.70;;;;;;5098819;28;19928;-71
2020/12/31 02:35:42;;;;;;;;;;;7.80;89.60;;;;;;5091598;28;20318;-71
2020/12/31 02:38:09;;;;;;;;;;;8.00;88.70;;;;;;5103607;28;19931;-68
2020/12/31 02:40:35;;;;;;;;;;;7.80;89.30;;;;;;5111590;28;19923;-69
2020/12/31 02:43:01;;;;;;;;;;;7.70;89.60;;;;;;5091090;28;19924;-68
2020/12/31 02:45:27;;;;;;;;;;;7.90;89.60;;;;;;5091106;28;19931;-70
2020/12/31 02:47:53;;;;;;;;;;;7.80;89.90;;;;;;5072933;28;19928;-69
2020/12/31 02:50:20;;;;;;;;;;;7.60;89.90;;;;;;5090841;28;19924;-71
2020/12/31 02:52:46;;;;;;;;;;;7.80;90.10;;;;;;5091212;28;19924;-71
2020/12/31 02:55:13;;;;;;;;;;;7.70;90.50;;;;;;5090738;28;19933;-71
2020/12/31 02:57:39;;;;;;;;;;;7.60;90.30;;;;;;5090868;28;19928;-71
2020/12/31 03:00:05;;;;;;;;;;;7.60;90.90;;;;;;5091070;28;19985;-68
2020/12/31 03:02:31;;;;;;;;;;;7.60;90.70;;;;;;5090834;28;20388;-68
2020/12/31 03:04:58;;;;;;;;;;;7.50;90.90;;;;;;5090878;28;20394;-69
2020/12/31 03:07:24;;;;;;;;;;;7.60;90.70;;;;;;5090756;28;19924;-70
2020/12/31 03:09:51;;;;;;;;;;;7.70;90.60;;;;;;5090869;28;20358;-71
2020/12/31 03:12:17;;;;;;;;;;;7.60;90.80;;;;;;5072924;28;19985;-71
2020/12/31 03:14:43;;;;;;;;;;;7.70;90.60;;;;;;5091241;28;20195;-72
2020/12/31 03:17:09;;;;;;;;;;;7.60;90.50;;;;;;5090652;28;20403;-71
2020/12/31 03:19:36;;;;;;;;;;;7.70;90.80;;;;;;5090141;28;19924;-69
2020/12/31 03:22:02;;;;;;;;;;;7.70;90.60;;;;;;5090088;28;19963;-65
2020/12/31 03:24:29;;;;;;;;;;;7.70;90.70;;;;;;5090517;28;19924;-68
2020/12/31 03:26:55;;;;;;;;;;;7.80;90.50;;;;;;5100635;28;19931;-68
2020/12/31 03:29:21;;;;;;;;;;;7.70;90.80;;;;;;5111193;28;19981;-70
2020/12/31 03:31:48;;;;;;;;;;;7.80;90.70;;;;;;5109949;28;19985;-69
2020/12/31 03:34:14;;;;;;;;;;;7.70;90.50;;;;;;5090045;28;19931;-66
2020/12/31 03:36:40;;;;;;;;;;;7.80;90.90;;;;;;5090544;28;19947;-69
2020/12/31 03:39:07;;;;;;;;;;;7.70;90.80;;;;;;5110435;28;19923;-68
2020/12/31 03:41:33;;;;;;;;;;;7.70;90.60;;;;;;5102672;28;19937;-71
2020/12/31 03:43:59;;;;;;;;;;;7.70;90.80;;;;;;5090509;28;20175;-68
2020/12/31 03:46:26;;;;;;;;;;;7.70;90.80;;;;;;5090013;28;19924;-65
2020/12/31 03:48:52;;;;;;;;;;;7.70;90.80;;;;;;5090102;28;19924;-67
2020/12/31 03:51:18;;;;;;;;;;;7.80;90.70;;;;;;5090219;28;19932;-66
2020/12/31 03:53:44;;;;;;;;;;;7.90;90.40;;;;;;5089819;28;19951;-67
2020/12/31 03:56:11;;;;;;;;;;;7.90;90.30;;;;;;5089932;28;19970;-69
2020/12/31 03:58:37;;;;;;;;;;;8.00;90.20;;;;;;5089916;28;20296;-68
2020/12/31 04:01:03;;;;;;;;;;;8.00;90.20;;;;;;5089959;28;19932;-67
2020/12/31 04:03:29;;;;;;;;;;;8.10;89.70;;;;;;5090034;28;19928;-71
2020/12/31 04:05:56;;;;;;;;;;;8.10;89.50;;;;;;5090024;28;19924;-69
2020/12/31 04:08:22;;;;;;;;;;;8.10;90.20;;;;;;5089925;28;19924;-68
2020/12/31 04:10:48;;;;;;;;;;;8.00;90.20;;;;;;5089938;28;19932;-67
2020/12/31 04:13:14;;;;;;;;;;;8.10;90.00;;;;;;5090139;28;19924;-69
2020/12/31 04:15:40;;;;;;;;;;;8.10;89.90;;;;;;5090002;28;19940;-70
2020/12/31 04:18:07;;;;;;;;;;;8.10;89.70;;;;;;5089916;28;19924;-68
2020/12/31 04:20:34;;;;;;;;;;;8.20;89.90;;;;;;5089829;28;19928;-68
2020/12/31 04:23:01;;;;;;;;;;;8.20;89.30;;;;;;5089697;28;19924;-71
2020/12/31 04:25:27;;;;;;;;;;;8.00;89.90;;;;;;5089731;28;20331;-71
2020/12/31 04:27:53;;;;;;;;;;;8.10;90.10;;;;;;5089779;28;20538;-69
2020/12/31 04:30:20;;;;;;;;;;;8.10;90.10;;;;;;5109895;28;19931;-70
2020/12/31 04:32:46;;;;;;;;;;;8.20;89.90;;;;;;5100758;28;19931;-68
2020/12/31 04:35:12;;;;;;;;;;;8.20;90.00;;;;;;5092850;28;20372;-70
2020/12/31 04:37:38;;;;;;;;;;;8.10;89.90;;;;;;5101292;28;19931;-71
2020/12/31 04:40:05;;;;;;;;;;;8.00;90.00;;;;;;5113788;28;19976;-68
2020/12/31 04:42:35;;;;;;;;;;;8.10;90.00;;;;;;5079640;28;20399;-66
2020/12/31 04:45:02;;;;;;;;;;;8.20;89.50;;;;;;5093614;28;19928;-70
2020/12/31 04:47:30;;;;;;;;;;;8.10;89.60;;;;;;5093465;28;19924;-70
2020/12/31 04:49:57;;;;;;;;;;;8.10;89.70;;;;;;5093173;28;20392;-71
2020/12/31 04:52:23;;;;;;;;;;;8.20;89.80;;;;;;5093225;28;19951;-69
2020/12/31 04:54:49;;;;;;;;;;;8.30;89.40;;;;;;5075001;28;20326;-70
2020/12/31 04:57:15;;;;;;;;;;;8.30;90.10;;;;;;5093050;28;19930;-71
2020/12/31 04:59:42;;;;;;;;;;;8.50;89.10;;;;;;5093203;28;19924;-71
2020/12/31 05:02:08;;;;;;;;;;;8.40;89.00;;;;;;5093128;28;19924;-70
2020/12/31 05:04:34;;;;;;;;;;;8.40;89.40;;;;;;5093025;28;19932;-71
2020/12/31 05:07:01;;;;;;;;;;;8.30;90.10;;;;;;5092765;28;20387;-71
2020/12/31 05:09:28;;;;;;;;;;;8.30;89.80;;;;;;5093311;28;19931;-70
2020/12/31 05:11:54;;;;;;;;;;;8.30;89.80;;;;;;5092834;28;19924;-70
2020/12/31 05:14:34;;;;;;;;;;;8.30;89.80;;;;;;5093223;28;19955;-70
2020/12/31 05:17:17;;;;;;;;;;;8.30;90.10;;;;;;5093434;28;20225;-70
2020/12/31 05:19:44;;;;;;;;;;;8.20;90.40;;;;;;5093935;28;19928;-70
2020/12/31 05:22:11;;;;;;;;;;;8.20;90.50;;;;;;5093140;28;19939;-70
2020/12/31 05:24:39;;;;;;;;;;;8.40;90.20;;;;;;5075129;28;19924;-69
2020/12/31 05:27:14;;;;;;;;;;;8.40;90.00;;;;;;5104235;28;19923;-69
2020/12/31 05:29:44;;;;;;;;;;;8.50;89.60;;;;;;5095176;28;19977;-69
2020/12/31 05:32:19;;;;;;;;;;;8.30;90.10;;;;;;5109061;28;20000;-70
2020/12/31 05:34:45;;;;;;;;;;;8.30;90.40;;;;;;5092381;28;20064;-70
2020/12/31 05:37:13;;;;;;;;;;;8.40;90.30;;;;;;5096527;28;19935;-71
2020/12/31 05:40:02;;;;;;;;;;;8.30;90.30;;;;;;5112952;28;19928;-70
2020/12/31 05:42:29;;;;;;;;;;;8.40;89.50;;;;;;5099184;28;19928;-69
2020/12/31 05:45:03;;;;;;;;;;;8.50;89.90;;;;;;5112182;28;19935;-70
2020/12/31 05:47:30;;;;;;;;;;;8.40;89.70;;;;;;5112300;28;19924;-68
2020/12/31 05:49:56;;;;;;;;;;;8.40;90.00;;;;;;5112397;28;20230;-70
2020/12/31 05:52:33;;;;;;;;;;;8.40;89.80;;;;;;5096086;28;20199;-70
2020/12/31 05:55:04;;;;;;;;;;;8.40;90.10;;;;;;5095017;28;20403;-71
2020/12/31 05:57:45;;;;;;;;;;;8.50;89.60;;;;;;5112311;28;19949;-70
2020/12/31 06:00:13;;;;;;;;;;;8.60;89.20;;;;;;5112428;28;19924;-69
2020/12/31 06:02:44;;;;;;;;;;;8.60;89.90;;;;;;5112298;28;20384;-70
2020/12/31 06:05:14;;;;;;;;;;;8.50;90.00;;;;;;5112295;28;19931;-70
2020/12/31 06:07:42;;;;;;;;;;;8.50;88.90;;;;;;5112376;28;19924;-71
2020/12/31 06:10:09;;;;;;;;;;;8.30;85.30;;;;;;5112006;28;19924;-70
2020/12/31 06:12:42;;;;;;;;;;;8.30;87.50;;;;;;5112214;28;19938;-71
2020/12/31 06:15:11;;;;;;;;;;;8.30;85.80;;;;;;5112163;28;19930;-71
2020/12/31 06:17:44;;;;;;;;;;;8.20;86.60;;;;;;5092680;28;19928;-72
2020/12/31 06:20:14;;;;;;;;;;;8.20;87.00;;;;;;5091470;28;20429;-69
2020/12/31 06:22:56;;;;;;;;;;;8.20;88.10;;;;;;5091514;28;19970;-67
2020/12/31 06:25:45;;;;;;;;;;;8.30;88.60;;;;;;5091379;28;19924;-69
2020/12/31 06:28:12;;;;;;;;;;;8.30;88.20;;;;;;5083322;28;19977;-67
2020/12/31 06:30:39;;;;;;;;;;;8.20;89.30;;;;;;5091235;28;19924;-71
2020/12/31 06:33:17;;;;;;;;;;;8.20;89.80;;;;;;5095185;28;19931;-70
2020/12/31 06:35:46;;;;;;;;;;;8.10;89.60;;;;;;5091334;28;19963;-70
2020/12/31 06:38:12;;;;;;;;;;;8.20;90.40;;;;;;5103700;28;19924;-70
2020/12/31 06:40:38;;;;;;;;;;;8.20;89.70;;;;;;5111149;28;19931;-70
2020/12/31 06:43:06;;;;;;;;;;;8.20;90.30;;;;;;5091354;28;19924;-70
2020/12/31 06:45:33;;;;;;;;;;;8.30;90.50;;;;;;5090935;28;19924;-71
2020/12/31 06:47:59;;;;;;;;;;;8.30;90.40;;;;;;5073150;28;19931;-67
2020/12/31 06:50:48;;;;;;;;;;;8.30;90.20;;;;;;5090832;28;19924;-69
2020/12/31 06:53:30;;;;;;;;;;;8.40;89.20;;;;;;5090924;28;20380;-71
2020/12/31 06:55:56;;;;;;;;;;;8.40;88.70;;;;;;5090871;28;19924;-70
2020/12/31 06:58:24;;;;;;;;;;;8.40;89.00;;;;;;5090001;28;20036;-70
2020/12/31 07:00:53;;;;;;;;;;;8.50;89.60;;;;;;5090894;28;19947;-70
2020/12/31 07:03:38;;;;;;;;;;;8.50;89.00;;;;;;5091258;28;19985;-68
2020/12/31 07:06:20;;;;;;;;;;;8.50;88.30;;;;;;5090950;28;19932;-70
2020/12/31 07:08:46;;;;;;;;;;;8.50;88.50;;;;;;5090910;28;19928;-70
2020/12/31 07:11:12;;;;;;;;;;;8.50;87.60;;;;;;5090795;28;20209;-70
2020/12/31 07:13:39;;;;;;;;;;;8.50;88.10;;;;;;5090719;28;19928;-69
2020/12/31 07:16:05;;;;;;;;;;;8.40;88.70;;;;;;5090259;28;20376;-69
2020/12/31 07:18:32;;;;;;;;;;;8.40;88.10;;;;;;5090432;28;19924;-70
2020/12/31 07:21:01;;;;;;;;;;;8.40;89.00;;;;;;5090426;28;19924;-69
2020/12/31 07:23:37;;;;;;;;;;;8.40;88.20;;;;;;5090412;28;19924;-71
2020/12/31 07:26:04;;;;;;;;;;;8.40;89.50;;;;;;5093436;28;19938;-70
2020/12/31 07:28:30;;;;;;;;;;;8.40;88.90;;;;;;5110793;28;19927;-70
2020/12/31 07:30:56;;;;;;;;;;;8.40;88.70;;;;;;5110609;28;19931;-71
2020/12/31 07:33:36;;;;;;;;;;;8.40;88.70;;;;;;5096374;28;19932;-69
2020/12/31 07:36:12;;;;;;;;;;;8.20;88.70;;;;;;5090560;28;19924;-70
2020/12/31 07:38:39;;;;;;;;;;;8.10;88.30;;;;;;5106324;28;20372;-70
2020/12/31 07:41:11;;;;;;;;;;;7.80;89.20;;;;;;5106827;28;19947;-71
2020/12/31 07:43:38;;;;;;;;;;;7.50;89.90;;;;;;5090672;28;19931;-71
2020/12/31 07:46:04;;;;;;;;;;;7.50;88.30;;;;;;5090234;28;19931;-69
2020/12/31 07:48:31;;;;;;;;;;;7.20;88.00;;;;;;5090527;28;20127;-70
2020/12/31 07:50:58;;;;;;;;;;;6.90;89.50;;;;;;5090457;28;19931;-67
2020/12/31 07:53:25;;;;;;;;;;;6.70;89.60;;;;;;5090315;28;19931;-71
2020/12/31 07:55:53;;;;;;;;;;;6.70;90.00;;;;;;5089919;28;19924;-70
2020/12/31 07:58:20;;;;;;;;;;;6.70;90.10;;;;;;5090561;28;19924;-73
2020/12/31 08:01:12;;;;;;;;;;;6.60;89.60;;;;;;5090180;28;19924;-71
2020/12/31 08:03:38;;;;;;;;;;;6.60;88.70;;;;;;5085294;28;20316;-70
2020/12/31 08:06:07;;;;;;;;;;;6.60;88.90;;;;;;5090266;28;19974;-70
2020/12/31 08:08:34;;;;;;;;;;;6.60;88.40;;;;;;5090171;28;19924;-66
2020/12/31 08:11:10;;;;;;;;;;;6.50;86.70;;;;;;5090192;28;19928;-70
2020/12/31 08:13:36;;;;;;;;;;;6.40;88.20;;;;;;5090395;28;19924;-70
2020/12/31 08:16:04;;;;;;;;;;;6.50;87.00;;;;;;5090312;28;19959;-72
2020/12/31 08:18:31;;;;;;;;;;;6.50;86.50;;;;;;5090328;28;20430;-70
2020/12/31 08:20:59;;;;;;;;;;;6.40;86.50;;;;;;5090278;28;19931;-70
2020/12/31 08:23:32;;;;;;;;;;;6.10;87.40;;;;;;5090227;28;19931;-69
2020/12/31 08:25:59;;;;;;;;;;;6.10;87.80;;;;;;5092378;28;20364;-70
2020/12/31 08:28:25;;;;;;;;;;;6.00;88.80;;;;;;5110705;28;19924;-69
2020/12/31 08:30:52;;;;;;;;;;;5.90;88.20;;;;;;5110700;28;19952;-72
2020/12/31 08:33:25;;;;;;;;;;;6.10;86.80;;;;;;5096930;28;19924;-66
2020/12/31 08:35:51;;;;;;;;;;;6.20;87.80;;;;;;5090328;28;20083;-72
2020/12/31 08:38:21;;;;;;;;;;;6.30;87.00;;;;;;5109324;28;19931;-66
2020/12/31 08:40:49;;;;;;;;;;;6.30;86.30;;;;;;5109114;28;19924;-72
2020/12/31 08:43:17;;;;;;;;;;;6.40;85.10;;;;;;5090033;28;19931;-71
2020/12/31 08:45:44;;;;;;;;;;;6.40;85.60;;;;;;5090104;28;19935;-72
2020/12/31 08:48:14;;;;;;;;;;;6.40;85.60;;;;;;5089676;28;20388;-71
2020/12/31 08:50:42;;;;;;;;;;;6.30;86.00;;;;;;5090087;28;19924;-71
2020/12/31 08:53:10;;;;;;;;;;;6.10;84.80;;;;;;5090090;28;19924;-72
2020/12/31 08:55:36;;;;;;;;;;;6.00;84.60;;;;;;5089776;28;19931;-70
2020/12/31 08:58:09;;;;;;;;;;;6.00;85.80;;;;;;5090729;28;20206;-69
2020/12/31 09:00:36;;;;;;;;;;;6.10;86.00;;;;;;5089842;28;19924;-71
2020/12/31 09:03:02;;;;;;;;;;;6.00;84.40;;;;;;5089785;28;19929;-66
2020/12/31 09:05:29;;;;;;;;;;;5.90;84.60;;;;;;5089791;28;19931;-68
2020/12/31 09:08:05;;;;;;;;;;;5.90;85.50;;;;;;5089919;28;19928;-70
2020/12/31 09:10:33;;;;;;;;;;;5.80;85.80;;;;;;5089615;28;19985;-70
2020/12/31 09:12:59;;;;;;;;;;;5.80;85.40;;;;;;5089407;28;19928;-69
2020/12/31 09:15:26;;;;;;;;;;;5.90;85.90;;;;;;5089706;28;19931;-70
2020/12/31 09:17:53;;;;;;;;;;;5.90;85.20;;;;;;5089773;28;19928;-73
2020/12/31 09:20:20;;;;;;;;;;;6.00;84.50;;;;;;5089814;28;19947;-71
2020/12/31 09:22:47;;;;;;;;;;;5.90;83.60;;;;;;5093363;28;20339;-71
2020/12/31 09:25:13;;;;;;;;;;;6.00;83.50;;;;;;5093139;28;19924;-70
2020/12/31 09:27:40;;;;;;;;;;;6.00;84.20;;;;;;5109766;28;19997;-66
2020/12/31 09:30:09;;;;;;;;;;;5.70;85.20;;;;;;5113466;28;19928;-66
2020/12/31 09:32:36;;;;;;;;;;;5.90;85.70;;;;;;5105899;28;19947;-70
2020/12/31 09:35:06;;;;;;;;;;;6.00;84.80;;;;;;5093345;28;19924;-70
2020/12/31 09:37:45;;;;;;;;;;;5.90;84.70;;;;;;5100857;28;19923;-71
2020/12/31 09:40:11;;;;;;;;;;;6.10;82.90;;;;;;5113617;28;19947;-68
2020/12/31 09:42:38;;;;;;;;;;;6.10;83.90;;;;;;5096875;28;19943;-71
2020/12/31 09:45:04;;;;;;;;;;;5.90;84.60;;;;;;5092771;28;20346;-67
2020/12/31 09:47:31;;;;;;;;;;;6.00;84.10;;;;;;5093389;28;19931;-71
2020/12/31 09:49:57;;;;;;;;;;;5.90;84.20;;;;;;5093259;28;19924;-71
2020/12/31 09:52:23;;;;;;;;;;;6.00;83.10;;;;;;5093230;28;19935;-71
2020/12/31 09:54:49;;;;;;;;;;;6.10;83.00;;;;;;5092791;28;19924;-70
2020/12/31 09:57:16;;;;;;;;;;;6.00;83.10;;;;;;5093109;28;19965;-65
2020/12/31 09:59:42;;;;;;;;;;;5.90;83.10;;;;;;5074760;28;19947;-71
2020/12/31 10:02:09;;;;;;;;;;;6.00;83.10;;;;;;5092848;28;19931;-70
2020/12/31 10:04:35;;;;;;;;;;;6.30;82.50;;;;;;5092489;28;19924;-70
2020/12/31 10:07:02;;;;;;;;;;;5.90;82.60;;;;;;5092565;28;19925;-71
2020/12/31 10:09:28;;;;;;;;;;;5.90;83.80;;;;;;5092905;28;19931;-69
2020/12/31 10:11:55;;;;;;;;;;;6.10;83.70;;;;;;5092638;28;19924;-71
2020/12/31 10:14:21;;;;;;;;;;;6.10;82.10;;;;;;5092366;28;19932;-72
2020/12/31 10:16:49;;;;;;;;;;;6.10;83.10;;;;;;5092490;28;19954;-70
2020/12/31 10:19:16;;;;;;;;;;;6.10;82.30;;;;;;5092636;28;19928;-71
2020/12/31 10:21:46;;;;;;;;;;;6.10;82.30;;;;;;5092077;28;19931;-70
2020/12/31 10:24:12;;;;;;;;;;;6.10;83.10;;;;;;5091982;28;20320;-70
2020/12/31 10:26:38;;;;;;;;;;;6.20;82.30;;;;;;5100364;28;19924;-71
2020/12/31 10:29:05;;;;;;;;;;;6.30;82.40;;;;;;5112847;28;19934;-75
2020/12/31 10:31:31;;;;;;;;;;;6.30;81.70;;;;;;5112322;28;20356;-70
2020/12/31 10:33:58;;;;;;;;;;;6.40;80.80;;;;;;5093213;28;19967;-70
2020/12/31 10:36:24;;;;;;;;;;;6.60;79.90;;;;;;5091828;28;19928;-72
2020/12/31 10:38:50;;;;;;;;;;;6.60;79.80;;;;;;5109933;28;20291;-72
2020/12/31 10:41:17;;;;;;;;;;;6.60;81.00;;;;;;5107256;28;19924;-70
2020/12/31 10:43:43;;;;;;;;;;;6.60;80.50;;;;;;5092669;28;19925;-70
2020/12/31 10:46:12;;;;;;;;;;;6.40;80.10;;;;;;5092230;28;20299;-71
2020/12/31 10:48:39;;;;;;;;;;;6.40;80.30;;;;;;5073902;28;20101;-69
2020/12/31 10:51:05;;;;;;;;;;;6.30;80.80;;;;;;5092179;28;19928;-72
2020/12/31 10:53:32;;;;;;;;;;;6.40;82.30;;;;;;5091957;28;19924;-69
2020/12/31 10:55:58;;;;;;;;;;;6.30;81.40;;;;;;5092016;28;19935;-72
2020/12/31 10:58:24;;;;;;;;;;;6.20;81.30;;;;;;5091981;28;19924;-69
2020/12/31 11:00:50;;;;;;;;;;;6.20;82.80;;;;;;5091762;28;19930;-71
2020/12/31 11:03:17;;;;;;;;;;;6.20;81.20;;;;;;5092106;28;20076;-73
2020/12/31 11:05:43;;;;;;;;;;;6.20;81.50;;;;;;5092276;28;19924;-72
2020/12/31 11:08:09;;;;;;;;;;;6.30;81.70;;;;;;5091275;28;20609;-71
2020/12/31 11:10:36;;;;;;;;;;;6.20;80.50;;;;;;5091497;28;19928;-70
2020/12/31 11:13:02;;;;;;;;;;;6.40;81.00;;;;;;5091328;28;20277;-70
2020/12/31 11:15:28;;;;;;;;;;;6.40;81.20;;;;;;5091145;28;19924;-70
2020/12/31 11:17:55;;;;;;;;;;;6.30;82.50;;;;;;5091262;28;20316;-70
2020/12/31 11:20:21;;;;;;;;;;;6.50;81.00;;;;;;5091175;28;20133;-70
2020/12/31 11:22:48;;;;;;;;;;;6.60;80.40;;;;;;5091353;28;20300;-68
2020/12/31 11:25:14;;;;;;;;;;;6.70;78.90;;;;;;5091323;28;19936;-71
2020/12/31 11:27:41;;;;;;;;;;;6.70;78.90;;;;;;5107396;28;19969;-70
2020/12/31 11:30:07;;;;;;;;;;;6.80;78.00;;;;;;5111278;28;19932;-70
2020/12/31 11:32:38;;;;;;;;;;;6.80;78.60;;;;;;5103675;28;20446;-70
2020/12/31 11:35:05;;;;;;;;;;;6.80;78.30;;;;;;5090709;28;19928;-70
2020/12/31 11:37:34;;;;;;;;;;;7.00;78.60;;;;;;5097802;28;19923;-71
2020/12/31 11:40:01;;;;;;;;;;;7.10;77.40;;;;;;5111359;28;19924;-71
2020/12/31 11:42:32;;;;;;;;;;;7.20;78.20;;;;;;5096286;28;20577;-71
2020/12/31 11:45:05;;;;;;;;;;;7.10;76.60;;;;;;5092711;28;19924;-71
2020/12/31 11:47:31;;;;;;;;;;;6.90;76.20;;;;;;5094463;28;19993;-73
2020/12/31 11:49:58;;;;;;;;;;;7.10;75.60;;;;;;5094471;28;20289;-70
2020/12/31 11:52:25;;;;;;;;;;;7.10;74.70;;;;;;5095550;28;20441;-75
2020/12/31 11:54:51;;;;;;;;;;;7.00;75.20;;;;;;5094958;28;20175;-72
2020/12/31 11:57:17;;;;;;;;;;;7.20;74.40;;;;;;5094398;28;19973;-69
2020/12/31 11:59:44;;;;;;;;;;;7.10;76.00;;;;;;5093260;28;19997;-67
2020/12/31 12:02:10;;;;;;;;;;;7.50;74.80;;;;;;5091373;28;19928;-70
2020/12/31 12:04:36;;;;;;;;;;;7.70;73.40;;;;;;5090528;28;19924;-70
2020/12/31 12:07:03;;;;;;;;;;;7.60;71.70;;;;;;5090467;28;20395;-70
2020/12/31 12:09:29;;;;;;;;;;;7.30;72.10;;;;;;5091906;28;19924;-70
2020/12/31 12:11:55;;;;;;;;;;;7.40;73.10;;;;;;5091957;28;19935;-68
2020/12/31 12:14:22;;;;;;;;;;;7.50;73.70;;;;;;5092193;28;19939;-70
2020/12/31 12:16:49;;;;;;;;;;;7.30;71.40;;;;;;5092745;28;19928;-69
2020/12/31 12:19:16;;;;;;;;;;;7.20;72.70;;;;;;5093011;28;20346;-68
2020/12/31 12:21:42;;;;;;;;;;;7.20;73.30;;;;;;5090874;28;20315;-70
2020/12/31 12:24:09;;;;;;;;;;;7.10;70.80;;;;;;5089820;28;19935;-71
2020/12/31 12:26:36;;;;;;;;;;;7.10;72.10;;;;;;5097059;28;20128;-68
2020/12/31 12:29:03;;;;;;;;;;;7.10;70.20;;;;;;5110189;28;19931;-71
2020/12/31 12:31:30;;;;;;;;;;;6.90;71.10;;;;;;5110460;28;19928;-72
2020/12/31 12:33:56;;;;;;;;;;;6.50;73.10;;;;;;5091490;28;19928;-69
2020/12/31 12:36:23;;;;;;;;;;;6.70;73.70;;;;;;5090174;28;19924;-66
2020/12/31 12:38:49;;;;;;;;;;;6.80;73.80;;;;;;5107786;28;19924;-70
2020/12/31 12:41:16;;;;;;;;;;;7.00;71.90;;;;;;5105349;28;20292;-71
2020/12/31 12:43:42;;;;;;;;;;;6.80;73.10;;;;;;5090060;28;19947;-70
2020/12/31 12:46:11;;;;;;;;;;;6.80;73.80;;;;;;5089860;28;19924;-70
2020/12/31 12:48:37;;;;;;;;;;;6.60;75.20;;;;;;5089801;28;19927;-70
2020/12/31 12:51:04;;;;;;;;;;;6.60;75.40;;;;;;5089882;28;19928;-70
2020/12/31 12:53:30;;;;;;;;;;;6.60;76.90;;;;;;5089585;28;20510;-70
2020/12/31 12:55:58;;;;;;;;;;;6.80;75.40;;;;;;5092378;28;19928;-71
2020/12/31 12:58:26;;;;;;;;;;;6.80;75.90;;;;;;5093720;28;19924;-69
2020/12/31 13:00:53;;;;;;;;;;;7.00;75.30;;;;;;5093697;28;19924;-70
2020/12/31 13:03:19;;;;;;;;;;;7.20;73.90;;;;;;5093375;28;19924;-71
2020/12/31 13:05:45;;;;;;;;;;;7.20;74.10;;;;;;5093467;28;19935;-66
2020/12/31 13:08:12;;;;;;;;;;;7.30;73.10;;;;;;5093376;28;20095;-70
2020/12/31 13:10:41;;;;;;;;;;;7.40;72.10;;;;;;5093197;28;20308;-71
2020/12/31 13:13:08;;;;;;;;;;;7.40;73.20;;;;;;5093274;28;19939;-69
2020/12/31 13:15:34;;;;;;;;;;;7.00;73.20;;;;;;5095051;28;20230;-69
2020/12/31 13:18:02;;;;;;;;;;;6.90;74.80;;;;;;5113864;28;19969;-70
2020/12/31 13:20:29;;;;;;;;;;;7.00;76.60;;;;;;5113604;28;19924;-70
2020/12/31 13:22:55;;;;;;;;;;;7.20;73.90;;;;;;5113769;28;19924;-67
2020/12/31 13:25:24;;;;;;;;;;;7.20;73.30;;;;;;5113489;28;19923;-72
2020/12/31 13:27:50;;;;;;;;;;;7.10;73.20;;;;;;5095949;28;19931;-71
2020/12/31 13:30:17;;;;;;;;;;;7.00;73.10;;;;;;5077606;28;19950;-72
2020/12/31 13:32:43;;;;;;;;;;;7.00;72.20;;;;;;5098625;28;19928;-73
2020/12/31 13:35:10;;;;;;;;;;;6.90;73.30;;;;;;5095358;28;19928;-74
2020/12/31 13:37:37;;;;;;;;;;;6.70;74.50;;;;;;5101208;28;19924;-70
2020/12/31 13:40:04;;;;;;;;;;;6.90;73.40;;;;;;5113089;28;19924;-69
2020/12/31 13:42:33;;;;;;;;;;;7.00;71.60;;;;;;5097401;28;19928;-72
2020/12/31 13:45:01;;;;;;;;;;;6.90;72.30;;;;;;5092622;28;19931;-72
2020/12/31 13:47:27;;;;;;;;;;;7.10;72.60;;;;;;5092496;28;19924;-72
2020/12/31 13:49:54;;;;;;;;;;;6.90;74.30;;;;;;5093077;28;20091;-70
2020/12/31 13:52:21;;;;;;;;;;;6.80;74.60;;;;;;5108785;28;20031;-72
2020/12/31 13:54:47;;;;;;;;;;;6.70;73.50;;;;;;5112792;28;20098;-70
2020/12/31 13:57:13;;;;;;;;;;;6.70;72.90;;;;;;5112940;28;19935;-72
2020/12/31 13:59:40;;;;;;;;;;;6.50;73.70;;;;;;5113588;28;19924;-70
2020/12/31 14:02:07;;;;;;;;;;;6.40;74.60;;;;;;5113328;28;19949;-71
2020/12/31 14:04:33;;;;;;;;;;;6.40;74.00;;;;;;5113537;28;19923;-72
2020/12/31 14:07:03;;;;;;;;;;;6.50;74.90;;;;;;5113665;28;19924;-74
2020/12/31 14:09:30;;;;;;;;;;;6.60;73.30;;;;;;5098104;28;19941;-71
2020/12/31 14:11:56;;;;;;;;;;;6.60;73.20;;;;;;5117159;28;20379;-71
2020/12/31 14:14:23;;;;;;;;;;;6.70;73.10;;;;;;5116294;28;19977;-74
2020/12/31 14:16:57;;;;;;;;;;;6.80;74.60;;;;;;5103930;28;19924;-69
2020/12/31 14:19:23;;;;;;;;;;;7.00;73.30;;;;;;5094520;28;19924;-67
2020/12/31 14:21:50;;;;;;;;;;;7.10;71.80;;;;;;5092231;28;19977;-69
2020/12/31 14:24:16;;;;;;;;;;;7.20;71.40;;;;;;5092094;28;19977;-70
2020/12/31 14:26:43;;;;;;;;;;;7.40;72.00;;;;;;5099888;28;19924;-69
2020/12/31 14:29:09;;;;;;;;;;;7.50;70.00;;;;;;5111897;28;19984;-69
2020/12/31 14:31:36;;;;;;;;;;;7.50;71.40;;;;;;5111875;28;20112;-69
2020/12/31 14:34:03;;;;;;;;;;;7.50;69.90;;;;;;5092435;28;19982;-70